Time;durP1;ratioP1;P1;durP2;ratioP2;P2;SDS_P1;SDS_P2;PMS_P1;PMS_P2;Temp;Humidity;BMP_temperature;BMP_pressure;BME280_temperature;BME280_humidity;BME280_pressure;Samples;Min_cycle;Max_cycle;Signal;HPM_P1;HPM_P2
2023/03/03 00:00:49;;;;;;;0.00;0.00;;;1.90;99.90;;;;;;5054220;28;20195;-70
2023/03/03 00:03:18;;;;;;;0.00;0.00;;;1.90;99.90;;;;;;5054142;28;20177;-70
2023/03/03 00:05:43;;;;;;;0.30;0.25;;;1.90;99.90;;;;;;5063077;28;20188;-70
2023/03/03 00:08:09;;;;;;;0.28;0.28;;;2.20;99.90;;;;;;5072538;28;20216;-70
2023/03/03 00:10:35;;;;;;;0.08;0.08;;;1.90;99.90;;;;;;5071929;28;20184;-70
2023/03/03 00:13:01;;;;;;;0.38;0.35;;;1.90;99.90;;;;;;5064950;28;20640;-70
2023/03/03 00:15:28;;;;;;;0.30;0.30;;;1.90;99.90;;;;;;5060754;28;20342;-69
2023/03/03 00:17:54;;;;;;;0.80;0.80;;;1.80;99.90;;;;;;5072357;28;20196;-70
2023/03/03 00:20:40;;;;;;;0.00;0.00;;;1.80;99.90;;;;;;5056462;28;20576;-70
2023/03/03 00:23:16;;;;;;;0.00;0.00;;;1.70;99.90;;;;;;5062627;28;20541;-70
2023/03/03 00:25:44;;;;;;;0.28;0.28;;;1.70;99.90;;;;;;5062967;28;20234;-70
2023/03/03 00:28:18;;;;;;;0.30;0.30;;;1.60;99.90;;;;;;5053586;28;20228;-70
2023/03/03 00:30:44;;;;;;;0.30;0.30;;;1.60;99.90;;;;;;5050965;28;20666;-70
2023/03/03 00:33:19;;;;;;;0.10;0.10;;;1.60;99.90;;;;;;5061738;28;20173;-71
2023/03/03 00:35:44;;;;;;;0.00;0.00;;;1.60;99.90;;;;;;5063589;28;20188;-70
2023/03/03 00:38:15;;;;;;;0.55;0.55;;;1.50;99.90;;;;;;5053425;28;20174;-71
2023/03/03 00:40:41;;;;;;;0.00;0.00;;;1.50;99.90;;;;;;5071948;28;20230;-70
2023/03/03 00:43:24;;;;;;;0.05;0.05;;;1.50;99.90;;;;;;5071314;28;20165;-70
2023/03/03 00:45:54;;;;;;;0.00;0.00;;;1.50;99.90;;;;;;5064048;28;20276;-70
2023/03/03 00:48:23;;;;;;;0.15;0.15;;;1.50;99.90;;;;;;5053229;28;20634;-70
2023/03/03 00:50:51;;;;;;;0.00;0.00;;;1.40;99.90;;;;;;5072366;28;20718;-70
2023/03/03 00:53:18;;;;;;;0.10;0.10;;;1.40;99.90;;;;;;5063130;28;20188;-70
2023/03/03 00:55:45;;;;;;;0.20;0.20;;;1.40;99.90;;;;;;5060279;28;20185;-70
2023/03/03 00:58:11;;;;;;;0.40;0.40;;;1.30;99.90;;;;;;5072299;28;20263;-71
2023/03/03 01:00:38;;;;;;;0.40;0.40;;;1.30;99.90;;;;;;5055177;28;20217;-71
2023/03/03 01:03:07;;;;;;;0.38;0.35;;;1.30;99.90;;;;;;5060475;28;20584;-70
2023/03/03 01:05:34;;;;;;;0.00;0.00;;;1.30;99.90;;;;;;5066180;28;20180;-70
2023/03/03 01:08:00;;;;;;;0.10;0.10;;;1.30;99.90;;;;;;5072875;28;20281;-72
2023/03/03 01:10:28;;;;;;;0.10;0.10;;;1.30;99.90;;;;;;5063406;28;20173;-71
2023/03/03 01:12:54;;;;;;;1.08;0.32;;;1.40;99.90;;;;;;5070952;28;20187;-72
2023/03/03 01:15:20;;;;;;;0.00;0.00;;;1.40;99.90;;;;;;5053926;28;20224;-71
2023/03/03 01:17:46;;;;;;;0.00;0.00;;;1.40;99.90;;;;;;5072944;28;20215;-70
2023/03/03 01:20:13;;;;;;;0.15;0.15;;;1.30;99.90;;;;;;5058371;28;20201;-71
2023/03/03 01:22:39;;;;;;;0.00;0.00;;;1.30;99.90;;;;;;5056597;28;20172;-70
2023/03/03 01:25:05;;;;;;;0.00;0.00;;;1.30;99.90;;;;;;5063877;28;20582;-70
2023/03/03 01:27:31;;;;;;;0.00;0.00;;;1.20;99.90;;;;;;5056357;28;20224;-70
2023/03/03 01:29:56;;;;;;;0.38;0.38;;;1.20;99.90;;;;;;5056788;28;20177;-71
2023/03/03 01:32:23;;;;;;;0.70;0.70;;;1.10;99.90;;;;;;5056343;28;20185;-69
2023/03/03 01:34:49;;;;;;;0.00;0.00;;;1.10;99.90;;;;;;5051985;28;20284;-71
2023/03/03 01:37:14;;;;;;;0.00;0.00;;;1.10;99.90;;;;;;5052448;28;20681;-70
2023/03/03 01:39:40;;;;;;;0.10;0.10;;;1.10;99.90;;;;;;5071205;28;20188;-71
2023/03/03 01:42:06;;;;;;;0.40;0.40;;;1.10;99.90;;;;;;5069052;28;20180;-70
2023/03/03 01:44:33;;;;;;;0.00;0.00;;;1.00;99.90;;;;;;5064286;28;20674;-70
2023/03/03 01:47:21;;;;;;;0.00;0.00;;;1.00;99.90;;;;;;5046551;28;20212;-70
2023/03/03 01:49:55;;;;;;;0.05;0.05;;;1.00;99.90;;;;;;5043988;28;20185;-71
2023/03/03 01:52:36;;;;;;;0.10;0.10;;;1.00;99.90;;;;;;5052174;28;20664;-70
2023/03/03 01:55:08;;;;;;;0.40;0.40;;;1.00;99.90;;;;;;5053207;28;20188;-70
2023/03/03 01:57:39;;;;;;;0.15;0.15;;;1.00;99.90;;;;;;5055963;28;20182;-70
2023/03/03 02:00:06;;;;;;;0.30;0.30;;;0.90;99.90;;;;;;5051968;28;20182;-71
2023/03/03 02:02:34;;;;;;;0.20;0.20;;;0.90;99.90;;;;;;5050583;28;20204;-70
2023/03/03 02:05:00;;;;;;;0.40;0.40;;;0.90;99.90;;;;;;5051497;28;20268;-71
2023/03/03 02:07:27;;;;;;;0.10;0.10;;;0.90;99.90;;;;;;5051109;28;20288;-70
2023/03/03 02:09:58;;;;;;;0.00;0.00;;;0.90;99.90;;;;;;5051536;28;20177;-71
2023/03/03 02:12:47;;;;;;;0.10;0.10;;;0.90;99.90;;;;;;5051131;28;20252;-71
2023/03/03 02:15:19;;;;;;;0.05;0.05;;;0.80;99.90;;;;;;5051040;28;20225;-71
2023/03/03 02:17:47;;;;;;;0.05;0.05;;;0.80;99.90;;;;;;5051036;28;20541;-71
2023/03/03 02:20:19;;;;;;;0.43;0.43;;;0.80;99.90;;;;;;5035375;28;20340;-71
2023/03/03 02:23:01;;;;;;;0.52;0.30;;;0.80;99.90;;;;;;5051317;28;20174;-71
2023/03/03 02:25:41;;;;;;;0.00;0.00;;;0.70;99.90;;;;;;5031529;28;20608;-70
2023/03/03 02:28:07;;;;;;;0.10;0.10;;;0.70;99.90;;;;;;5044938;28;20209;-70
2023/03/03 02:30:37;;;;;;;0.00;0.00;;;0.70;99.90;;;;;;5051036;28;20266;-70
2023/03/03 02:33:03;;;;;;;0.00;0.00;;;0.70;99.90;;;;;;5051181;28;20281;-70
2023/03/03 02:35:34;;;;;;;0.40;0.40;;;0.70;99.90;;;;;;5039475;28;20204;-70
2023/03/03 02:38:26;;;;;;;0.22;0.22;;;0.60;99.90;;;;;;5051089;28;20212;-70
2023/03/03 02:41:19;;;;;;;0.00;0.00;;;0.60;99.90;;;;;;5049870;28;20182;-70
2023/03/03 02:44:08;;;;;;;0.45;0.45;;;0.60;99.90;;;;;;5042283;28;20260;-70
2023/03/03 02:46:36;;;;;;;0.22;0.22;;;0.60;99.90;;;;;;5050732;28;20165;-70
2023/03/03 02:49:04;;;;;;;0.00;0.00;;;0.50;99.90;;;;;;5051150;28;20181;-70
2023/03/03 02:51:29;;;;;;;0.28;0.28;;;0.50;99.90;;;;;;5050705;28;20177;-71
2023/03/03 02:53:55;;;;;;;0.35;0.35;;;0.50;99.90;;;;;;5051107;28;20185;-70
2023/03/03 02:56:21;;;;;;;0.10;0.10;;;0.40;99.90;;;;;;5051856;28;20257;-71
2023/03/03 02:58:47;;;;;;;0.13;0.13;;;0.40;99.90;;;;;;5061804;28;20177;-70
2023/03/03 03:01:12;;;;;;;3.75;0.75;;;0.40;99.90;;;;;;5050694;28;20675;-71
2023/03/03 03:03:38;;;;;;;0.15;0.15;;;0.40;99.90;;;;;;5050857;28;20181;-70
2023/03/03 03:06:04;;;;;;;0.00;0.00;;;0.40;99.90;;;;;;5050891;28;20185;-70
2023/03/03 03:08:30;;;;;;;0.25;0.17;;;0.30;99.90;;;;;;5051112;28;20217;-70
2023/03/03 03:10:58;;;;;;;0.28;0.28;;;0.30;99.90;;;;;;5050993;28;20186;-70
2023/03/03 03:13:24;;;;;;;0.08;0.08;;;0.30;99.90;;;;;;5049775;28;20185;-70
2023/03/03 03:15:50;;;;;;;0.20;0.20;;;0.30;99.90;;;;;;5050559;28;20256;-70
2023/03/03 03:18:15;;;;;;;0.10;0.10;;;0.30;99.90;;;;;;5049889;28;20586;-70
2023/03/03 03:20:41;;;;;;;1.35;1.27;;;0.20;99.90;;;;;;5068684;28;20189;-71
2023/03/03 03:23:08;;;;;;;3.00;0.80;;;0.30;99.90;;;;;;5055202;28;20185;-71
2023/03/03 03:25:34;;;;;;;0.13;0.13;;;0.20;99.90;;;;;;5054703;28;20182;-70
2023/03/03 03:28:00;;;;;;;0.10;0.10;;;0.20;99.90;;;;;;5054690;28;20224;-71
2023/03/03 03:30:26;;;;;;;0.10;0.10;;;0.20;99.90;;;;;;5054506;28;20264;-69
2023/03/03 03:32:52;;;;;;;0.63;0.63;;;0.10;99.90;;;;;;5054528;28;20307;-70
2023/03/03 03:35:17;;;;;;;0.08;0.08;;;0.10;99.90;;;;;;5054913;28;20181;-69
2023/03/03 03:37:43;;;;;;;0.08;0.08;;;0.10;99.90;;;;;;5054725;28;20204;-69
2023/03/03 03:40:09;;;;;;;0.00;0.00;;;0.00;99.90;;;;;;5054622;28;20726;-69
2023/03/03 03:42:36;;;;;;;0.43;0.43;;;0.00;99.90;;;;;;5054399;28;20189;-69
2023/03/03 03:45:02;;;;;;;0.10;0.10;;;-0.10;99.90;;;;;;5054874;28;20193;-69
2023/03/03 03:47:27;;;;;;;0.68;0.68;;;-0.10;99.90;;;;;;5054175;28;20306;-69
2023/03/03 03:49:53;;;;;;;0.00;0.00;;;-0.10;99.90;;;;;;5054539;28;20257;-69
2023/03/03 03:52:18;;;;;;;0.00;0.00;;;-0.10;99.90;;;;;;5054133;28;20173;-69
2023/03/03 03:54:44;;;;;;;0.00;0.00;;;-0.20;99.90;;;;;;5055526;28;20173;-69
2023/03/03 03:57:09;;;;;;;0.00;0.00;;;-0.20;99.90;;;;;;5053255;28;20542;-69
2023/03/03 03:59:35;;;;;;;1.17;1.07;;;-0.10;99.90;;;;;;5054343;28;20185;-69
2023/03/03 04:02:00;;;;;;;0.40;0.32;;;-0.10;99.90;;;;;;5054418;28;20173;-69
2023/03/03 04:04:26;;;;;;;0.47;0.17;;;-0.20;99.90;;;;;;5053939;28;20687;-69
2023/03/03 04:06:51;;;;;;;0.00;0.00;;;-0.20;99.90;;;;;;5054226;28;20248;-70
2023/03/03 04:09:17;;;;;;;0.32;0.32;;;-0.20;99.90;;;;;;5054043;28;20224;-69
2023/03/03 04:11:42;;;;;;;0.20;0.20;;;-0.20;99.90;;;;;;5053832;28;20644;-70
2023/03/03 04:14:08;;;;;;;0.20;0.20;;;-0.20;99.90;;;;;;5053825;28;20247;-70
2023/03/03 04:16:34;;;;;;;0.15;0.15;;;-0.20;99.90;;;;;;5053725;28;20201;-67
2023/03/03 04:18:59;;;;;;;0.30;0.30;;;-0.20;99.90;;;;;;5054236;28;20177;-67
2023/03/03 04:21:25;;;;;;;0.10;0.10;;;-0.20;99.90;;;;;;5059064;28;20237;-67
2023/03/03 04:23:52;;;;;;;0.00;0.00;;;-0.20;99.90;;;;;;5056172;28;20181;-69
2023/03/03 04:26:17;;;;;;;0.83;0.83;;;-0.20;99.90;;;;;;5053885;28;20260;-66
2023/03/03 04:28:43;;;;;;;0.45;0.45;;;-0.20;99.90;;;;;;5058527;28;20229;-67
2023/03/03 04:31:09;;;;;;;0.60;0.52;;;-0.30;99.90;;;;;;5060288;28;20177;-65
2023/03/03 04:33:35;;;;;;;0.00;0.00;;;-0.30;99.90;;;;;;5053875;28;20652;-64
2023/03/03 04:36:00;;;;;;;0.15;0.15;;;-0.30;99.90;;;;;;5070607;28;20620;-63
2023/03/03 04:38:26;;;;;;;0.00;0.00;;;-0.40;99.90;;;;;;5059445;28;20204;-66
2023/03/03 04:40:52;;;;;;;0.10;0.10;;;-0.40;99.90;;;;;;5058659;28;20184;-67
2023/03/03 04:43:17;;;;;;;0.00;0.00;;;-0.40;99.90;;;;;;5054144;28;20200;-72
2023/03/03 04:45:43;;;;;;;0.08;0.08;;;-0.40;99.90;;;;;;5055850;28;20185;-68
2023/03/03 04:48:09;;;;;;;0.00;0.00;;;-0.40;99.90;;;;;;5064041;28;20209;-68
2023/03/03 04:50:34;;;;;;;0.00;0.00;;;-0.40;99.90;;;;;;5069630;28;20177;-68
2023/03/03 04:53:00;;;;;;;0.00;0.00;;;-0.40;99.90;;;;;;5053618;28;20192;-71
2023/03/03 04:55:25;;;;;;;0.47;0.47;;;-0.40;99.90;;;;;;5056057;28;20173;-65
2023/03/03 04:57:51;;;;;;;0.30;0.30;;;-0.40;99.90;;;;;;5060399;28;20533;-63
2023/03/03 05:00:16;;;;;;;0.33;0.33;;;-0.40;99.90;;;;;;5071022;28;20260;-69
2023/03/03 05:02:42;;;;;;;0.00;0.00;;;-0.40;99.90;;;;;;5057581;28;20178;-69
2023/03/03 05:05:09;;;;;;;0.60;0.60;;;-0.40;99.90;;;;;;5052942;28;20185;-69
2023/03/03 05:07:34;;;;;;;0.10;0.10;;;-0.30;99.90;;;;;;5052520;28;20201;-69
2023/03/03 05:10:00;;;;;;;1.00;0.93;;;-0.30;99.90;;;;;;5068040;28;20296;-68
2023/03/03 05:12:26;;;;;;;0.30;0.30;;;-0.20;99.90;;;;;;5052751;28;20192;-70
2023/03/03 05:14:51;;;;;;;0.35;0.35;;;-0.20;99.90;;;;;;5052816;28;20236;-69
2023/03/03 05:17:17;;;;;;;0.53;0.53;;;-0.10;99.90;;;;;;5052202;28;20174;-69
2023/03/03 05:19:43;;;;;;;0.00;0.00;;;-0.10;99.90;;;;;;5044827;28;20188;-69
2023/03/03 05:22:09;;;;;;;0.40;0.40;;;0.00;99.90;;;;;;5052866;28;20231;-69
2023/03/03 05:24:35;;;;;;;0.00;0.00;;;0.00;99.90;;;;;;5052722;28;20546;-69
2023/03/03 05:27:02;;;;;;;0.35;0.35;;;0.10;99.90;;;;;;5051411;28;20649;-69
2023/03/03 05:29:30;;;;;;;0.08;0.08;;;0.10;99.90;;;;;;5052611;28;20193;-69
2023/03/03 05:31:56;;;;;;;0.30;0.30;;;0.20;99.90;;;;;;5052607;28;20182;-69
2023/03/03 05:34:22;;;;;;;0.00;0.00;;;0.20;99.90;;;;;;5052668;28;20184;-69
2023/03/03 05:36:47;;;;;;;0.00;0.00;;;0.20;99.90;;;;;;5052804;28;20252;-69
2023/03/03 05:39:13;;;;;;;0.20;0.20;;;0.20;99.90;;;;;;5052547;28;20188;-69
2023/03/03 05:41:39;;;;;;;0.00;0.00;;;0.30;99.90;;;;;;5052509;28;20178;-69
2023/03/03 05:44:05;;;;;;;0.40;0.40;;;0.30;99.90;;;;;;5052075;28;20252;-68
2023/03/03 05:46:30;;;;;;;0.90;0.50;;;0.30;99.90;;;;;;5051162;28;20177;-68
2023/03/03 05:48:56;;;;;;;0.05;0.05;;;0.30;99.90;;;;;;5052232;28;20625;-69
2023/03/03 05:51:21;;;;;;;0.00;0.00;;;0.40;99.90;;;;;;5052343;28;20603;-68
2023/03/03 05:53:47;;;;;;;0.35;0.35;;;0.50;99.90;;;;;;5052244;28;20703;-69
2023/03/03 05:56:12;;;;;;;0.00;0.00;;;0.50;99.90;;;;;;5052226;28;20632;-69
2023/03/03 05:58:38;;;;;;;0.00;0.00;;;0.60;99.90;;;;;;5052170;28;20663;-69
2023/03/03 06:01:04;;;;;;;0.38;0.38;;;0.60;99.90;;;;;;5052214;28;20641;-70
2023/03/03 06:03:30;;;;;;;0.10;0.10;;;0.60;99.90;;;;;;5052176;28;20177;-68
2023/03/03 06:05:56;;;;;;;0.10;0.10;;;0.60;99.90;;;;;;5051994;28;20200;-69
2023/03/03 06:08:21;;;;;;;0.80;0.80;;;0.70;99.90;;;;;;5051964;28;20605;-68
2023/03/03 06:10:47;;;;;;;2.75;0.43;;;0.70;99.90;;;;;;5051874;28;20181;-69
2023/03/03 06:13:12;;;;;;;0.03;0.03;;;0.70;99.90;;;;;;5041172;28;20269;-69
2023/03/03 06:15:38;;;;;;;0.30;0.30;;;0.80;99.90;;;;;;5031858;28;20694;-69
2023/03/03 06:18:03;;;;;;;0.00;0.00;;;0.80;99.90;;;;;;5032132;28;20178;-69
2023/03/03 06:20:29;;;;;;;0.03;0.03;;;0.90;99.90;;;;;;5031874;28;20178;-68
2023/03/03 06:22:54;;;;;;;0.32;0.32;;;0.90;99.90;;;;;;5031937;28;20184;-69
2023/03/03 06:25:20;;;;;;;0.10;0.10;;;0.90;99.90;;;;;;5030520;28;20264;-69
2023/03/03 06:27:45;;;;;;;0.08;0.08;;;0.90;99.90;;;;;;5031752;28;20229;-69
2023/03/03 06:30:11;;;;;;;0.00;0.00;;;1.00;99.90;;;;;;5031839;28;20174;-70
2023/03/03 06:32:37;;;;;;;0.10;0.10;;;1.10;99.90;;;;;;5031460;28;20197;-69
2023/03/03 06:35:03;;;;;;;0.10;0.10;;;1.10;99.90;;;;;;5031466;28;20645;-69
2023/03/03 06:37:29;;;;;;;0.20;0.20;;;1.10;99.90;;;;;;5031132;28;20185;-68
2023/03/03 06:39:54;;;;;;;0.10;0.10;;;1.20;99.90;;;;;;5031125;28;20178;-69
2023/03/03 06:42:20;;;;;;;0.00;0.00;;;1.20;99.90;;;;;;5031253;28;20182;-69
2023/03/03 06:44:46;;;;;;;0.28;0.28;;;1.30;99.90;;;;;;5046446;28;20190;-69
2023/03/03 06:47:11;;;;;;;0.00;0.00;;;1.30;99.90;;;;;;5031182;28;20202;-69
2023/03/03 06:49:37;;;;;;;0.43;0.43;;;1.40;99.90;;;;;;5030978;28;20193;-68
2023/03/03 06:52:12;;;;;;;0.10;0.10;;;1.40;99.90;;;;;;5031208;28;20655;-69
2023/03/03 06:54:37;;;;;;;0.00;0.00;;;1.50;99.90;;;;;;5030377;28;20216;-69
2023/03/03 06:57:18;;;;;;;0.00;0.00;;;1.50;99.90;;;;;;5031041;28;20621;-68
2023/03/03 06:59:44;;;;;;;0.00;0.00;;;1.60;99.90;;;;;;5030888;28;20652;-68
2023/03/03 07:02:16;;;;;;;0.00;0.00;;;1.60;99.90;;;;;;5030886;28;20182;-68
2023/03/03 07:04:41;;;;;;;0.00;0.00;;;1.70;99.90;;;;;;5036207;28;20181;-69
2023/03/03 07:07:16;;;;;;;0.00;0.00;;;1.80;99.90;;;;;;5050772;28;20307;-69
2023/03/03 07:09:44;;;;;;;0.00;0.00;;;1.80;99.90;;;;;;5050874;28;20177;-69
2023/03/03 07:12:14;;;;;;;0.28;0.28;;;1.90;99.90;;;;;;5048720;28;20200;-69
2023/03/03 07:14:45;;;;;;;0.43;0.40;;;2.00;99.90;;;;;;5030718;28;20234;-69
2023/03/03 07:17:17;;;;;;;0.10;0.10;;;2.00;99.90;;;;;;5030756;28;20201;-70
2023/03/03 07:19:43;;;;;;;0.47;0.47;;;2.10;99.90;;;;;;5030836;28;20170;-69
2023/03/03 07:22:23;;;;;;;0.30;0.30;;;2.10;99.90;;;;;;5031001;28;20228;-70
2023/03/03 07:24:53;;;;;;;0.10;0.10;;;2.20;99.90;;;;;;5030960;28;20209;-69
2023/03/03 07:27:28;;;;;;;0.00;0.00;;;2.30;99.90;;;;;;5029425;28;20201;-68
2023/03/03 07:30:08;;;;;;;0.10;0.10;;;2.40;99.90;;;;;;5029587;28;20674;-69
2023/03/03 07:32:36;;;;;;;0.00;0.00;;;2.40;99.90;;;;;;5030587;28;20265;-69
2023/03/03 07:35:23;;;;;;;0.10;0.10;;;2.50;99.90;;;;;;5030736;28;20762;-70
2023/03/03 07:37:48;;;;;;;0.43;0.43;;;2.60;99.90;;;;;;5030727;28;20181;-70
2023/03/03 07:40:32;;;;;;;0.00;0.00;;;2.70;99.90;;;;;;5029489;28;20190;-70
2023/03/03 07:42:58;;;;;;;0.00;0.00;;;3.00;99.90;;;;;;5030800;28;20166;-70
2023/03/03 07:45:31;;;;;;;0.10;0.10;;;3.30;99.90;;;;;;5030782;28;20744;-69
2023/03/03 07:48:16;;;;;;;0.00;0.00;;;3.80;99.90;;;;;;5030640;28;20336;-70
2023/03/03 07:50:42;;;;;;;0.00;0.00;;;4.40;99.90;;;;;;5046084;28;20178;-70
2023/03/03 07:53:25;;;;;;;0.00;0.00;;;5.00;99.90;;;;;;5030641;28;20174;-70
2023/03/03 07:55:50;;;;;;;0.00;0.00;;;5.60;99.90;;;;;;5030676;28;20185;-70
2023/03/03 07:58:22;;;;;;;0.00;0.00;;;6.10;99.90;;;;;;5030549;28;20558;-71
2023/03/03 08:01:27;;;;;;;0.10;0.10;;;6.60;99.90;;;;;;5030896;28;20626;-70
2023/03/03 08:03:53;;;;;;;0.00;0.00;;;7.10;99.60;;;;;;5029706;28;20193;-71
2023/03/03 08:06:47;;;;;;;0.10;0.10;;;7.60;98.20;;;;;;5051058;28;20177;-70
2023/03/03 08:09:28;;;;;;;0.00;0.00;;;8.00;97.00;;;;;;5054377;28;20193;-70
2023/03/03 08:11:59;;;;;;;0.00;0.00;;;8.40;95.90;;;;;;5054407;28;20204;-71
2023/03/03 08:14:29;;;;;;;0.00;0.00;;;8.80;94.10;;;;;;5034076;28;20230;-70
2023/03/03 08:16:55;;;;;;;0.15;0.15;;;9.10;93.00;;;;;;5034287;28;20174;-70
2023/03/03 08:19:22;;;;;;;0.00;0.00;;;9.40;91.60;;;;;;5034228;28;20706;-70
2023/03/03 08:21:47;;;;;;;0.00;0.00;;;9.50;89.20;;;;;;5034225;28;20178;-70
2023/03/03 08:24:13;;;;;;;0.00;0.00;;;9.60;89.20;;;;;;5033042;28;20239;-70
2023/03/03 08:26:38;;;;;;;0.00;0.00;;;9.80;88.60;;;;;;5034161;28;20182;-70
2023/03/03 08:29:04;;;;;;;0.35;0.28;;;9.90;87.50;;;;;;5034141;28;20209;-71
2023/03/03 08:31:29;;;;;;;0.00;0.00;;;10.10;84.50;;;;;;5034178;28;20244;-70
2023/03/03 08:33:55;;;;;;;0.00;0.00;;;10.30;82.00;;;;;;5033918;28;20182;-70
2023/03/03 08:36:20;;;;;;;0.00;0.00;;;10.50;78.80;;;;;;5032721;28;20628;-71
2023/03/03 08:38:46;;;;;;;0.00;0.00;;;10.60;76.40;;;;;;5032744;28;20181;-70
2023/03/03 08:41:12;;;;;;;0.00;0.00;;;10.60;75.60;;;;;;5033956;28;20509;-71
2023/03/03 08:43:38;;;;;;;0.00;0.00;;;10.70;76.00;;;;;;5033565;28;20863;-70
2023/03/03 08:46:05;;;;;;;0.00;0.00;;;10.90;76.20;;;;;;5033897;28;20183;-71
2023/03/03 08:48:31;;;;;;;0.38;0.38;;;11.00;75.00;;;;;;5033538;28;20213;-70
2023/03/03 08:50:57;;;;;;;0.00;0.00;;;11.10;72.80;;;;;;5033691;28;20285;-70
2023/03/03 08:53:23;;;;;;;0.15;0.15;;;11.10;71.40;;;;;;5033629;28;20181;-70
2023/03/03 08:55:49;;;;;;;0.00;0.00;;;10.90;71.20;;;;;;5033624;28;20609;-70
2023/03/03 08:58:17;;;;;;;0.00;0.00;;;10.60;72.00;;;;;;5032172;28;20236;-71
2023/03/03 09:00:43;;;;;;;0.00;0.00;;;10.40;72.70;;;;;;5033481;28;20175;-70
2023/03/03 09:03:08;;;;;;;0.00;0.00;;;10.00;72.80;;;;;;5033450;28;20190;-71
2023/03/03 09:05:36;;;;;;;0.10;0.10;;;10.00;73.30;;;;;;5045781;28;20268;-71
2023/03/03 09:08:02;;;;;;;0.00;0.00;;;10.00;73.70;;;;;;5053227;28;20209;-70
2023/03/03 09:10:30;;;;;;;0.10;0.10;;;10.10;73.80;;;;;;5053230;28;20176;-70
2023/03/03 09:13:00;;;;;;;0.00;0.00;;;10.20;73.50;;;;;;5044625;28;20728;-70
2023/03/03 09:15:33;;;;;;;0.00;0.00;;;10.20;73.90;;;;;;5033006;28;20228;-70
2023/03/03 09:18:27;;;;;;;0.00;0.00;;;10.30;73.00;;;;;;5032373;28;20185;-70
2023/03/03 09:20:56;;;;;;;0.10;0.10;;;10.30;73.00;;;;;;5033253;28;20634;-70
2023/03/03 09:23:40;;;;;;;0.00;0.00;;;10.30;74.10;;;;;;5032868;28;20194;-69
2023/03/03 09:26:28;;;;;;;0.25;0.25;;;10.40;74.40;;;;;;5033149;28;20266;-70
2023/03/03 09:29:17;;;;;;;0.00;0.00;;;10.60;74.10;;;;;;5032951;28;20214;-70
2023/03/03 09:31:52;;;;;;;0.00;0.00;;;10.50;73.90;;;;;;5032843;28;20178;-70
2023/03/03 09:34:26;;;;;;;0.00;0.00;;;10.50;75.40;;;;;;5032773;28;20177;-70
2023/03/03 09:36:53;;;;;;;0.00;0.00;;;10.70;75.00;;;;;;5032816;28;20173;-70
2023/03/03 09:39:22;;;;;;;0.00;0.00;;;10.80;74.50;;;;;;5032716;28;20182;-70
2023/03/03 09:42:03;;;;;;;0.00;0.00;;;11.00;73.40;;;;;;5032725;28;20319;-70
2023/03/03 09:44:48;;;;;;;0.00;0.00;;;11.10;73.10;;;;;;5032614;28;20182;-70
2023/03/03 09:47:28;;;;;;;0.00;0.00;;;11.00;71.90;;;;;;5032536;28;20198;-70
2023/03/03 09:50:27;;;;;;;0.00;0.00;;;11.00;72.80;;;;;;5032520;28;20625;-70
2023/03/03 09:53:24;;;;;;;0.00;0.00;;;11.00;71.90;;;;;;5031242;28;20259;-70
2023/03/03 09:55:49;;;;;;;0.00;0.00;;;11.00;72.50;;;;;;5031249;28;20208;-71
2023/03/03 09:58:44;;;;;;;0.15;0.15;;;11.00;71.90;;;;;;5032315;28;20216;-71
2023/03/03 10:01:28;;;;;;;0.15;0.13;;;11.00;72.20;;;;;;5032522;28;20684;-71
2023/03/03 10:03:59;;;;;;;0.00;0.00;;;11.10;71.60;;;;;;5032323;28;20188;-71
2023/03/03 10:06:44;;;;;;;0.00;0.00;;;11.10;71.70;;;;;;5051791;28;20263;-71
2023/03/03 10:09:37;;;;;;;0.00;0.00;;;11.20;70.70;;;;;;5052276;28;20248;-71
2023/03/03 10:12:16;;;;;;;0.00;0.00;;;11.00;70.70;;;;;;5049626;28;20201;-71
2023/03/03 10:15:03;;;;;;;0.00;0.00;;;11.10;71.90;;;;;;5032068;28;20218;-71
2023/03/03 10:17:42;;;;;;;0.00;0.00;;;11.00;70.00;;;;;;5032107;28;20180;-71
2023/03/03 10:20:28;;;;;;;0.10;0.10;;;11.00;69.80;;;;;;5032189;28;20178;-72
2023/03/03 10:23:04;;;;;;;0.17;0.17;;;11.00;70.90;;;;;;5032014;28;20200;-71
2023/03/03 10:25:44;;;;;;;0.00;0.00;;;11.10;71.50;;;;;;5032004;28;20526;-71
2023/03/03 10:28:40;;;;;;;0.00;0.00;;;11.20;71.50;;;;;;5031879;28;20552;-71
2023/03/03 10:31:31;;;;;;;0.08;0.08;;;11.40;70.60;;;;;;5032072;28;20182;-69
2023/03/03 10:34:36;;;;;;;0.17;0.17;;;11.70;69.60;;;;;;5031806;28;20693;-69
2023/03/03 10:37:26;;;;;;;0.00;0.00;;;11.70;70.10;;;;;;5031897;28;20188;-69
2023/03/03 10:40:13;;;;;;;0.10;0.10;;;11.80;68.10;;;;;;5031780;28;20170;-69
2023/03/03 10:42:39;;;;;;;0.00;0.00;;;11.90;66.60;;;;;;5030476;28;20595;-70
2023/03/03 10:45:17;;;;;;;0.00;0.00;;;11.80;66.40;;;;;;5030538;28;20178;-69
2023/03/03 10:47:53;;;;;;;0.00;0.00;;;11.90;67.00;;;;;;5031636;28;20228;-68
2023/03/03 10:51:03;;;;;;;0.00;0.00;;;12.00;66.70;;;;;;5031718;28;20185;-68
2023/03/03 10:53:41;;;;;;;0.00;0.00;;;12.10;66.00;;;;;;4989923;28;20334;-68
2023/03/03 10:56:18;;;;;;;0.00;0.00;;;11.90;66.20;;;;;;4990041;28;20178;-69
2023/03/03 10:59:06;;;;;;;0.10;0.10;;;12.00;66.10;;;;;;5015882;28;20188;-69
2023/03/03 11:01:53;;;;;;;0.63;0.47;;;12.10;66.50;;;;;;5031573;28;20638;-69
2023/03/03 11:04:33;;;;;;;0.20;0.20;;;12.20;65.40;;;;;;5033895;28;20170;-69
2023/03/03 11:06:59;;;;;;;0.00;0.00;;;12.20;65.00;;;;;;5051873;28;20634;-71
2023/03/03 11:09:57;;;;;;;0.43;0.43;;;12.20;66.00;;;;;;5051837;28;20216;-70
2023/03/03 11:12:28;;;;;;;0.00;0.00;;;12.20;65.40;;;;;;5044743;28;20217;-70
2023/03/03 11:15:20;;;;;;;0.00;0.00;;;12.20;66.20;;;;;;5031333;28;20241;-70
2023/03/03 11:18:14;;;;;;;0.73;0.32;;;12.30;66.60;;;;;;5031730;28;20182;-71
2023/03/03 11:21:03;;;;;;;0.10;0.10;;;12.50;65.10;;;;;;5031684;28;20181;-70
2023/03/03 11:23:43;;;;;;;0.10;0.10;;;12.60;64.90;;;;;;5031380;28;20190;-70
2023/03/03 11:26:23;;;;;;;0.00;0.00;;;12.70;65.30;;;;;;5031477;28;20552;-70
2023/03/03 11:29:13;;;;;;;0.00;0.00;;;12.80;65.40;;;;;;5031509;28;20214;-71
2023/03/03 11:31:54;;;;;;;0.20;0.20;;;12.90;64.40;;;;;;5030074;28;20193;-71
2023/03/03 11:34:37;;;;;;;0.00;0.00;;;13.00;64.10;;;;;;5031428;28;20181;-70
2023/03/03 11:37:21;;;;;;;0.05;0.05;;;13.00;64.30;;;;;;5030133;28;20264;-72
2023/03/03 11:39:49;;;;;;;0.00;0.00;;;13.00;64.00;;;;;;5045318;28;20179;-72
2023/03/03 11:42:29;;;;;;;0.00;0.00;;;12.90;63.60;;;;;;5034577;28;20221;-71
2023/03/03 11:45:01;;;;;;;0.57;0.57;;;12.90;63.70;;;;;;5035097;28;20633;-70
2023/03/03 11:47:34;;;;;;;0.00;0.00;;;12.90;64.10;;;;;;5034911;28;20252;-69
2023/03/03 11:50:07;;;;;;;0.05;0.05;;;13.10;64.60;;;;;;5035082;28;20571;-70
2023/03/03 11:52:52;;;;;;;0.00;0.00;;;13.20;63.90;;;;;;5034813;28;20178;-69
2023/03/03 11:55:32;;;;;;;0.00;0.00;;;13.20;64.30;;;;;;5034752;28;20645;-70
2023/03/03 11:58:07;;;;;;;0.05;0.05;;;13.40;64.50;;;;;;5034735;28;20182;-70
2023/03/03 12:00:44;;;;;;;0.10;0.10;;;13.50;63.50;;;;;;5033270;28;20637;-70
2023/03/03 12:03:37;;;;;;;0.10;0.10;;;13.50;63.60;;;;;;5034666;28;20210;-70
2023/03/03 12:06:28;;;;;;;0.00;0.00;;;13.50;63.10;;;;;;5053445;28;20649;-70
2023/03/03 12:09:27;;;;;;;0.00;0.00;;;13.50;62.30;;;;;;5054182;28;20792;-70
2023/03/03 12:12:04;;;;;;;0.00;0.00;;;13.40;61.90;;;;;;5054418;28;20530;-70
2023/03/03 12:15:07;;;;;;;0.00;0.00;;;13.20;61.80;;;;;;5052244;28;20383;-70
2023/03/03 12:18:04;;;;;;;0.17;0.17;;;13.20;63.10;;;;;;5054225;28;20165;-70
2023/03/03 12:20:54;;;;;;;0.47;0.35;;;13.30;63.10;;;;;;5054256;28;20178;-70
2023/03/03 12:23:23;;;;;;;0.70;0.32;;;13.20;62.10;;;;;;5054048;28;20280;-70
2023/03/03 12:26:06;;;;;;;0.08;0.08;;;13.10;63.00;;;;;;5054091;28;20640;-69
2023/03/03 12:28:58;;;;;;;0.00;0.00;;;13.10;63.10;;;;;;5053934;28;20221;-70
2023/03/03 12:31:57;;;;;;;0.15;0.05;;;13.00;62.30;;;;;;5053982;28;20172;-69
2023/03/03 12:34:42;;;;;;;0.10;0.10;;;12.90;62.70;;;;;;5053743;28;20652;-70
2023/03/03 12:37:20;;;;;;;0.10;0.10;;;12.90;62.70;;;;;;5052685;28;20181;-71
2023/03/03 12:40:14;;;;;;;0.00;0.00;;;12.80;62.30;;;;;;5053866;28;20222;-71
2023/03/03 12:42:48;;;;;;;0.00;0.00;;;12.80;62.80;;;;;;5053817;28;20304;-70
2023/03/03 12:45:30;;;;;;;0.00;0.00;;;12.90;62.20;;;;;;5053607;28;20234;-71
2023/03/03 12:48:07;;;;;;;0.00;0.00;;;13.00;62.40;;;;;;5053630;28;20213;-71
2023/03/03 12:50:39;;;;;;;0.00;0.00;;;12.90;61.60;;;;;;5053450;28;20185;-70
2023/03/03 12:53:12;;;;;;;0.15;0.10;;;12.70;61.70;;;;;;5052306;28;20176;-70
2023/03/03 12:55:54;;;;;;;0.00;0.00;;;12.60;62.30;;;;;;5053416;28;20177;-70
2023/03/03 12:58:36;;;;;;;0.28;0.28;;;12.60;62.80;;;;;;5053498;28;20173;-70
2023/03/03 13:01:20;;;;;;;0.22;0.22;;;12.70;63.60;;;;;;5053599;28;20173;-71
2023/03/03 13:04:27;;;;;;;0.00;0.00;;;12.80;62.90;;;;;;5053427;28;20173;-70
2023/03/03 13:07:18;;;;;;;0.00;0.00;;;12.90;62.90;;;;;;5032050;28;20182;-70
2023/03/03 13:10:14;;;;;;;0.43;0.43;;;12.90;63.40;;;;;;5033348;28;20186;-71
2023/03/03 13:12:55;;;;;;;0.10;0.10;;;12.90;63.50;;;;;;5039355;28;20182;-71
2023/03/03 13:15:33;;;;;;;0.80;0.20;;;12.80;61.80;;;;;;5053047;28;20316;-70
2023/03/03 13:18:23;;;;;;;0.35;0.35;;;12.60;61.60;;;;;;5053235;28;20227;-70
2023/03/03 13:21:05;;;;;;;0.20;0.10;;;12.50;61.60;;;;;;5053175;28;20177;-71